sensor_id;sensor_type;location;lat;lon;timestamp;P1;durP1;ratioP1;P2;durP2;ratioP2
55328;SDS011;41205;44.264;19.884;2022-11-15T00:01:25;53.58;;;36.13;;
55328;SDS011;41205;44.264;19.884;2022-11-15T00:03:51;178.02;;;100.97;;
55328;SDS011;41205;44.264;19.884;2022-11-15T00:06:17;167.30;;;102.35;;
55328;SDS011;41205;44.264;19.884;2022-11-15T00:08:43;65.38;;;43.63;;
55328;SDS011;41205;44.264;19.884;2022-11-15T00:11:10;57.58;;;39.50;;
55328;SDS011;41205;44.264;19.884;2022-11-15T00:13:37;88.80;;;55.97;;
55328;SDS011;41205;44.264;19.884;2022-11-15T00:16:03;63.47;;;40.50;;
55328;SDS011;41205;44.264;19.884;2022-11-15T00:18:29;56.10;;;36.97;;
55328;SDS011;41205;44.264;19.884;2022-11-15T00:20:55;52.70;;;38.80;;
55328;SDS011;41205;44.264;19.884;2022-11-15T00:23:27;57.50;;;38.95;;
55328;SDS011;41205;44.264;19.884;2022-11-15T00:25:56;50.88;;;35.95;;
55328;SDS011;41205;44.264;19.884;2022-11-15T00:28:23;49.92;;;35.38;;
55328;SDS011;41205;44.264;19.884;2022-11-15T00:30:49;48.20;;;33.10;;
55328;SDS011;41205;44.264;19.884;2022-11-15T00:33:14;56.85;;;39.97;;
55328;SDS011;41205;44.264;19.884;2022-11-15T00:35:40;65.03;;;43.17;;
55328;SDS011;41205;44.264;19.884;2022-11-15T00:38:06;56.50;;;38.85;;
55328;SDS011;41205;44.264;19.884;2022-11-15T00:40:31;53.40;;;39.00;;
55328;SDS011;41205;44.264;19.884;2022-11-15T00:42:57;52.20;;;36.90;;
55328;SDS011;41205;44.264;19.884;2022-11-15T00:45:23;132.70;;;80.95;;
55328;SDS011;41205;44.264;19.884;2022-11-15T00:47:49;66.53;;;44.53;;
55328;SDS011;41205;44.264;19.884;2022-11-15T00:50:15;76.80;;;47.55;;
55328;SDS011;41205;44.264;19.884;2022-11-15T00:52:41;65.90;;;43.30;;
55328;SDS011;41205;44.264;19.884;2022-11-15T00:55:09;68.43;;;45.80;;
55328;SDS011;41205;44.264;19.884;2022-11-15T00:57:41;68.22;;;46.88;;
55328;SDS011;41205;44.264;19.884;2022-11-15T01:00:07;63.70;;;45.58;;
55328;SDS011;41205;44.264;19.884;2022-11-15T01:02:33;124.28;;;79.65;;
55328;SDS011;41205;44.264;19.884;2022-11-15T01:04:59;68.40;;;44.50;;
55328;SDS011;41205;44.264;19.884;2022-11-15T01:07:25;63.95;;;43.28;;
55328;SDS011;41205;44.264;19.884;2022-11-15T01:09:50;59.92;;;43.22;;
55328;SDS011;41205;44.264;19.884;2022-11-15T01:12:16;61.83;;;41.03;;
55328;SDS011;41205;44.264;19.884;2022-11-15T01:14:42;69.53;;;44.72;;
55328;SDS011;41205;44.264;19.884;2022-11-15T01:17:07;69.03;;;48.08;;
55328;SDS011;41205;44.264;19.884;2022-11-15T01:19:33;86.28;;;54.22;;
55328;SDS011;41205;44.264;19.884;2022-11-15T01:21:59;80.05;;;53.83;;
55328;SDS011;41205;44.264;19.884;2022-11-15T01:24:24;79.15;;;50.28;;
55328;SDS011;41205;44.264;19.884;2022-11-15T01:26:50;72.78;;;54.80;;
55328;SDS011;41205;44.264;19.884;2022-11-15T01:29:16;68.93;;;51.17;;
55328;SDS011;41205;44.264;19.884;2022-11-15T01:31:42;85.30;;;56.97;;
55328;SDS011;41205;44.264;19.884;2022-11-15T01:34:07;73.95;;;50.28;;
55328;SDS011;41205;44.264;19.884;2022-11-15T01:36:33;69.10;;;47.45;;
55328;SDS011;41205;44.264;19.884;2022-11-15T01:38:59;71.00;;;51.13;;
55328;SDS011;41205;44.264;19.884;2022-11-15T01:41:26;80.47;;;54.83;;
55328;SDS011;41205;44.264;19.884;2022-11-15T01:43:55;74.18;;;50.08;;
55328;SDS011;41205;44.264;19.884;2022-11-15T01:48:56;87.38;;;53.85;;
55328;SDS011;41205;44.264;19.884;2022-11-15T01:51:25;68.78;;;48.42;;
55328;SDS011;41205;44.264;19.884;2022-11-15T01:53:54;60.50;;;44.75;;
55328;SDS011;41205;44.264;19.884;2022-11-15T01:56:23;72.75;;;48.03;;
55328;SDS011;41205;44.264;19.884;2022-11-15T01:58:52;100.28;;;68.35;;
55328;SDS011;41205;44.264;19.884;2022-11-15T02:01:21;112.30;;;75.07;;
55328;SDS011;41205;44.264;19.884;2022-11-15T02:03:54;137.82;;;92.13;;
55328;SDS011;41205;44.264;19.884;2022-11-15T02:06:23;128.43;;;86.75;;
55328;SDS011;41205;44.264;19.884;2022-11-15T02:08:49;111.57;;;75.85;;
55328;SDS011;41205;44.264;19.884;2022-11-15T02:11:15;105.90;;;71.88;;
55328;SDS011;41205;44.264;19.884;2022-11-15T02:13:41;113.05;;;72.78;;
55328;SDS011;41205;44.264;19.884;2022-11-15T02:18:52;100.38;;;66.88;;
55328;SDS011;41205;44.264;19.884;2022-11-15T02:21:36;101.30;;;69.47;;
55328;SDS011;41205;44.264;19.884;2022-11-15T02:29:59;103.38;;;69.93;;
55328;SDS011;41205;44.264;19.884;2022-11-15T02:32:59;106.10;;;71.93;;
55328;SDS011;41205;44.264;19.884;2022-11-15T02:36:00;94.80;;;66.63;;
55328;SDS011;41205;44.264;19.884;2022-11-15T02:38:33;95.38;;;65.53;;
55328;SDS011;41205;44.264;19.884;2022-11-15T02:44:50;90.57;;;62.33;;
55328;SDS011;41205;44.264;19.884;2022-11-15T02:47:18;100.63;;;65.70;;
55328;SDS011;41205;44.264;19.884;2022-11-15T02:49:46;89.65;;;64.63;;
55328;SDS011;41205;44.264;19.884;2022-11-15T02:52:14;101.40;;;67.80;;
55328;SDS011;41205;44.264;19.884;2022-11-15T02:54:57;96.45;;;68.88;;
55328;SDS011;41205;44.264;19.884;2022-11-15T03:00:19;100.57;;;72.57;;
55328;SDS011;41205;44.264;19.884;2022-11-15T03:16:05;146.77;;;95.00;;
55328;SDS011;41205;44.264;19.884;2022-11-15T03:18:37;129.75;;;88.82;;
55328;SDS011;41205;44.264;19.884;2022-11-15T03:21:07;126.05;;;83.88;;
55328;SDS011;41205;44.264;19.884;2022-11-15T03:23:36;128.55;;;85.72;;
55328;SDS011;41205;44.264;19.884;2022-11-15T03:26:03;107.07;;;73.97;;
55328;SDS011;41205;44.264;19.884;2022-11-15T03:28:37;113.45;;;84.28;;
55328;SDS011;41205;44.264;19.884;2022-11-15T03:31:13;125.82;;;88.25;;
55328;SDS011;41205;44.264;19.884;2022-11-15T03:33:59;121.43;;;83.63;;
55328;SDS011;41205;44.264;19.884;2022-11-15T03:36:29;128.15;;;84.22;;
55328;SDS011;41205;44.264;19.884;2022-11-15T03:38:58;121.85;;;86.40;;
55328;SDS011;41205;44.264;19.884;2022-11-15T03:41:43;167.52;;;107.55;;
55328;SDS011;41205;44.264;19.884;2022-11-15T03:47:12;134.23;;;94.82;;
55328;SDS011;41205;44.264;19.884;2022-11-15T03:49:46;134.18;;;92.20;;
55328;SDS011;41205;44.264;19.884;2022-11-15T03:52:21;141.38;;;93.15;;
55328;SDS011;41205;44.264;19.884;2022-11-15T03:54:48;126.47;;;88.30;;
55328;SDS011;41205;44.264;19.884;2022-11-15T03:57:20;127.00;;;88.47;;
55328;SDS011;41205;44.264;19.884;2022-11-15T03:59:46;129.80;;;90.40;;
55328;SDS011;41205;44.264;19.884;2022-11-15T04:02:12;130.00;;;88.60;;
55328;SDS011;41205;44.264;19.884;2022-11-15T04:04:38;121.72;;;86.55;;
55328;SDS011;41205;44.264;19.884;2022-11-15T04:07:03;121.13;;;85.13;;
55328;SDS011;41205;44.264;19.884;2022-11-15T04:09:29;143.30;;;96.03;;
55328;SDS011;41205;44.264;19.884;2022-11-15T04:11:55;146.38;;;96.57;;
55328;SDS011;41205;44.264;19.884;2022-11-15T04:14:21;145.32;;;98.63;;
55328;SDS011;41205;44.264;19.884;2022-11-15T04:16:47;138.93;;;98.68;;
55328;SDS011;41205;44.264;19.884;2022-11-15T04:19:12;142.10;;;98.70;;
55328;SDS011;41205;44.264;19.884;2022-11-15T04:21:56;135.68;;;94.93;;
55328;SDS011;41205;44.264;19.884;2022-11-15T04:24:40;145.80;;;100.78;;
55328;SDS011;41205;44.264;19.884;2022-11-15T04:27:06;144.90;;;97.63;;
55328;SDS011;41205;44.264;19.884;2022-11-15T04:29:32;149.20;;;100.72;;
55328;SDS011;41205;44.264;19.884;2022-11-15T04:32:04;136.85;;;94.32;;
55328;SDS011;41205;44.264;19.884;2022-11-15T04:34:31;136.15;;;95.43;;
55328;SDS011;41205;44.264;19.884;2022-11-15T04:36:58;144.13;;;98.97;;
55328;SDS011;41205;44.264;19.884;2022-11-15T04:39:40;247.05;;;149.50;;
55328;SDS011;41205;44.264;19.884;2022-11-15T04:42:06;214.68;;;144.00;;
55328;SDS011;41205;44.264;19.884;2022-11-15T04:44:32;190.75;;;131.18;;
55328;SDS011;41205;44.264;19.884;2022-11-15T04:46:58;185.15;;;139.25;;
55328;SDS011;41205;44.264;19.884;2022-11-15T04:49:23;186.60;;;135.20;;
55328;SDS011;41205;44.264;19.884;2022-11-15T04:51:49;179.43;;;125.03;;
55328;SDS011;41205;44.264;19.884;2022-11-15T04:54:15;205.23;;;133.63;;
55328;SDS011;41205;44.264;19.884;2022-11-15T04:56:41;204.43;;;137.07;;
55328;SDS011;41205;44.264;19.884;2022-11-15T04:59:07;213.50;;;138.48;;
55328;SDS011;41205;44.264;19.884;2022-11-15T05:01:33;194.73;;;131.43;;
55328;SDS011;41205;44.264;19.884;2022-11-15T05:03:58;173.63;;;117.35;;
55328;SDS011;41205;44.264;19.884;2022-11-15T05:06:43;169.20;;;117.85;;
55328;SDS011;41205;44.264;19.884;2022-11-15T05:09:08;149.05;;;101.53;;
55328;SDS011;41205;44.264;19.884;2022-11-15T05:11:34;171.45;;;114.82;;
55328;SDS011;41205;44.264;19.884;2022-11-15T05:14:00;159.35;;;112.38;;
55328;SDS011;41205;44.264;19.884;2022-11-15T05:16:26;166.43;;;111.50;;
55328;SDS011;41205;44.264;19.884;2022-11-15T05:18:52;168.15;;;105.18;;
55328;SDS011;41205;44.264;19.884;2022-11-15T05:21:18;147.88;;;104.20;;
55328;SDS011;41205;44.264;19.884;2022-11-15T05:23:44;161.32;;;105.28;;
55328;SDS011;41205;44.264;19.884;2022-11-15T05:26:10;153.23;;;105.38;;
55328;SDS011;41205;44.264;19.884;2022-11-15T05:28:36;155.23;;;104.32;;
55328;SDS011;41205;44.264;19.884;2022-11-15T05:31:03;156.20;;;104.25;;
55328;SDS011;41205;44.264;19.884;2022-11-15T05:33:31;162.57;;;111.28;;
55328;SDS011;41205;44.264;19.884;2022-11-15T05:36:00;170.43;;;118.88;;
55328;SDS011;41205;44.264;19.884;2022-11-15T05:38:46;164.95;;;122.45;;
55328;SDS011;41205;44.264;19.884;2022-11-15T05:41:13;170.07;;;115.47;;
55328;SDS011;41205;44.264;19.884;2022-11-15T05:43:41;173.93;;;125.38;;
55328;SDS011;41205;44.264;19.884;2022-11-15T05:46:08;180.40;;;125.03;;
55328;SDS011;41205;44.264;19.884;2022-11-15T05:48:34;166.32;;;117.45;;
55328;SDS011;41205;44.264;19.884;2022-11-15T05:51:02;164.43;;;117.45;;
55328;SDS011;41205;44.264;19.884;2022-11-15T05:53:30;175.68;;;122.97;;
55328;SDS011;41205;44.264;19.884;2022-11-15T05:55:56;170.73;;;118.95;;
55328;SDS011;41205;44.264;19.884;2022-11-15T05:58:22;196.70;;;130.18;;
55328;SDS011;41205;44.264;19.884;2022-11-15T06:00:47;173.35;;;118.05;;
55328;SDS011;41205;44.264;19.884;2022-11-15T06:03:13;183.20;;;125.35;;
55328;SDS011;41205;44.264;19.884;2022-11-15T06:05:39;186.30;;;129.23;;
55328;SDS011;41205;44.264;19.884;2022-11-15T06:08:05;202.88;;;129.23;;
55328;SDS011;41205;44.264;19.884;2022-11-15T06:10:31;235.88;;;142.82;;
55328;SDS011;41205;44.264;19.884;2022-11-15T06:12:58;206.98;;;135.55;;
55328;SDS011;41205;44.264;19.884;2022-11-15T06:15:24;167.93;;;122.55;;
55328;SDS011;41205;44.264;19.884;2022-11-15T06:17:50;189.25;;;128.20;;
55328;SDS011;41205;44.264;19.884;2022-11-15T06:20:16;175.63;;;127.00;;
55328;SDS011;41205;44.264;19.884;2022-11-15T06:22:42;190.93;;;132.15;;
55328;SDS011;41205;44.264;19.884;2022-11-15T06:25:08;182.48;;;132.48;;
55328;SDS011;41205;44.264;19.884;2022-11-15T06:27:34;232.77;;;163.60;;
55328;SDS011;41205;44.264;19.884;2022-11-15T06:29:59;174.32;;;118.90;;
55328;SDS011;41205;44.264;19.884;2022-11-15T06:32:25;159.27;;;113.97;;
55328;SDS011;41205;44.264;19.884;2022-11-15T06:34:51;172.98;;;122.20;;
55328;SDS011;41205;44.264;19.884;2022-11-15T06:37:17;178.90;;;127.45;;
55328;SDS011;41205;44.264;19.884;2022-11-15T06:39:42;200.63;;;131.82;;
55328;SDS011;41205;44.264;19.884;2022-11-15T06:42:09;196.82;;;128.55;;
55328;SDS011;41205;44.264;19.884;2022-11-15T06:44:35;191.60;;;132.15;;
55328;SDS011;41205;44.264;19.884;2022-11-15T06:47:01;207.68;;;135.07;;
55328;SDS011;41205;44.264;19.884;2022-11-15T06:49:26;193.20;;;121.45;;
55328;SDS011;41205;44.264;19.884;2022-11-15T06:51:52;182.32;;;121.88;;
55328;SDS011;41205;44.264;19.884;2022-11-15T06:54:18;181.35;;;124.50;;
55328;SDS011;41205;44.264;19.884;2022-11-15T06:56:43;167.38;;;114.78;;
55328;SDS011;41205;44.264;19.884;2022-11-15T06:59:09;166.07;;;112.53;;
55328;SDS011;41205;44.264;19.884;2022-11-15T07:01:35;157.00;;;112.70;;
55328;SDS011;41205;44.264;19.884;2022-11-15T07:04:00;177.55;;;111.28;;
55328;SDS011;41205;44.264;19.884;2022-11-15T07:06:26;160.50;;;109.75;;
55328;SDS011;41205;44.264;19.884;2022-11-15T07:08:52;150.98;;;106.60;;
55328;SDS011;41205;44.264;19.884;2022-11-15T07:11:17;156.40;;;106.72;;
55328;SDS011;41205;44.264;19.884;2022-11-15T07:13:43;135.30;;;93.85;;
55328;SDS011;41205;44.264;19.884;2022-11-15T07:16:09;150.32;;;98.25;;
55328;SDS011;41205;44.264;19.884;2022-11-15T07:18:38;171.85;;;142.18;;
55328;SDS011;41205;44.264;19.884;2022-11-15T07:21:06;151.23;;;104.22;;
55328;SDS011;41205;44.264;19.884;2022-11-15T07:23:33;148.45;;;102.93;;
55328;SDS011;41205;44.264;19.884;2022-11-15T07:26:02;160.13;;;112.97;;
55328;SDS011;41205;44.264;19.884;2022-11-15T07:28:28;177.70;;;132.02;;
55328;SDS011;41205;44.264;19.884;2022-11-15T07:30:53;146.60;;;105.10;;
55328;SDS011;41205;44.264;19.884;2022-11-15T07:33:19;162.95;;;114.90;;
55328;SDS011;41205;44.264;19.884;2022-11-15T07:35:45;152.68;;;111.30;;
55328;SDS011;41205;44.264;19.884;2022-11-15T07:38:14;148.68;;;103.18;;
55328;SDS011;41205;44.264;19.884;2022-11-15T07:40:40;144.60;;;103.25;;
55328;SDS011;41205;44.264;19.884;2022-11-15T07:43:06;128.45;;;93.72;;
55328;SDS011;41205;44.264;19.884;2022-11-15T07:45:33;136.23;;;98.28;;
55328;SDS011;41205;44.264;19.884;2022-11-15T07:47:59;138.20;;;97.43;;
55328;SDS011;41205;44.264;19.884;2022-11-15T07:50:26;140.82;;;104.05;;
55328;SDS011;41205;44.264;19.884;2022-11-15T07:52:55;140.07;;;99.45;;
55328;SDS011;41205;44.264;19.884;2022-11-15T07:55:27;131.32;;;96.03;;
55328;SDS011;41205;44.264;19.884;2022-11-15T07:58:01;134.63;;;99.17;;
55328;SDS011;41205;44.264;19.884;2022-11-15T08:00:30;133.20;;;96.40;;
55328;SDS011;41205;44.264;19.884;2022-11-15T08:03:10;132.73;;;95.97;;
55328;SDS011;41205;44.264;19.884;2022-11-15T08:05:37;139.25;;;99.28;;
55328;SDS011;41205;44.264;19.884;2022-11-15T08:08:04;137.20;;;97.38;;
55328;SDS011;41205;44.264;19.884;2022-11-15T08:10:30;139.52;;;103.18;;
55328;SDS011;41205;44.264;19.884;2022-11-15T08:12:57;139.35;;;103.03;;
55328;SDS011;41205;44.264;19.884;2022-11-15T08:15:33;133.90;;;94.15;;
55328;SDS011;41205;44.264;19.884;2022-11-15T08:18:01;133.70;;;95.82;;
55328;SDS011;41205;44.264;19.884;2022-11-15T08:20:30;155.32;;;115.18;;
55328;SDS011;41205;44.264;19.884;2022-11-15T08:22:56;146.15;;;98.43;;
55328;SDS011;41205;44.264;19.884;2022-11-15T08:25:26;136.52;;;98.43;;
55328;SDS011;41205;44.264;19.884;2022-11-15T08:27:54;134.65;;;91.95;;
55328;SDS011;41205;44.264;19.884;2022-11-15T08:30:21;151.95;;;112.00;;
55328;SDS011;41205;44.264;19.884;2022-11-15T08:32:48;134.35;;;96.22;;
55328;SDS011;41205;44.264;19.884;2022-11-15T08:35:15;149.55;;;104.63;;
55328;SDS011;41205;44.264;19.884;2022-11-15T08:37:41;130.27;;;94.63;;
55328;SDS011;41205;44.264;19.884;2022-11-15T08:40:07;154.88;;;111.93;;
55328;SDS011;41205;44.264;19.884;2022-11-15T08:42:33;119.97;;;87.25;;
55328;SDS011;41205;44.264;19.884;2022-11-15T08:44:59;128.57;;;88.35;;
55328;SDS011;41205;44.264;19.884;2022-11-15T08:47:26;164.55;;;118.47;;
55328;SDS011;41205;44.264;19.884;2022-11-15T08:49:52;231.52;;;165.25;;
55328;SDS011;41205;44.264;19.884;2022-11-15T08:52:18;137.75;;;98.53;;
55328;SDS011;41205;44.264;19.884;2022-11-15T08:54:43;112.57;;;80.47;;
55328;SDS011;41205;44.264;19.884;2022-11-15T08:57:09;122.30;;;87.15;;
55328;SDS011;41205;44.264;19.884;2022-11-15T08:59:35;118.72;;;87.18;;
55328;SDS011;41205;44.264;19.884;2022-11-15T09:02:02;122.95;;;88.30;;
55328;SDS011;41205;44.264;19.884;2022-11-15T09:04:28;131.93;;;95.70;;
55328;SDS011;41205;44.264;19.884;2022-11-15T09:06:54;133.20;;;94.25;;
55328;SDS011;41205;44.264;19.884;2022-11-15T09:09:20;132.68;;;100.85;;
55328;SDS011;41205;44.264;19.884;2022-11-15T09:11:45;151.30;;;106.03;;
55328;SDS011;41205;44.264;19.884;2022-11-15T09:14:12;137.40;;;105.72;;
55328;SDS011;41205;44.264;19.884;2022-11-15T09:16:38;148.77;;;110.50;;
55328;SDS011;41205;44.264;19.884;2022-11-15T09:19:03;151.60;;;109.75;;
55328;SDS011;41205;44.264;19.884;2022-11-15T09:21:29;165.57;;;119.25;;
55328;SDS011;41205;44.264;19.884;2022-11-15T09:23:55;166.57;;;121.18;;
55328;SDS011;41205;44.264;19.884;2022-11-15T09:26:21;173.32;;;122.68;;
55328;SDS011;41205;44.264;19.884;2022-11-15T09:28:47;183.93;;;136.25;;
55328;SDS011;41205;44.264;19.884;2022-11-15T09:31:13;179.77;;;134.07;;
55328;SDS011;41205;44.264;19.884;2022-11-15T09:33:39;167.32;;;124.72;;
55328;SDS011;41205;44.264;19.884;2022-11-15T09:36:05;154.80;;;112.28;;
55328;SDS011;41205;44.264;19.884;2022-11-15T09:38:33;143.13;;;108.10;;
55328;SDS011;41205;44.264;19.884;2022-11-15T09:41:08;167.77;;;122.10;;
55328;SDS011;41205;44.264;19.884;2022-11-15T09:49:03;214.88;;;164.30;;
55328;SDS011;41205;44.264;19.884;2022-11-15T09:53:58;197.27;;;151.90;;
55328;SDS011;41205;44.264;19.884;2022-11-15T09:56:29;216.23;;;161.52;;
55328;SDS011;41205;44.264;19.884;2022-11-15T09:59:00;201.90;;;152.65;;
55328;SDS011;41205;44.264;19.884;2022-11-15T10:04:30;226.10;;;180.38;;
55328;SDS011;41205;44.264;19.884;2022-11-15T10:06:59;232.07;;;171.20;;
55328;SDS011;41205;44.264;19.884;2022-11-15T10:12:26;222.55;;;166.57;;
55328;SDS011;41205;44.264;19.884;2022-11-15T10:15:03;226.55;;;180.80;;
55328;SDS011;41205;44.264;19.884;2022-11-15T10:23:24;242.35;;;183.38;;
55328;SDS011;41205;44.264;19.884;2022-11-15T10:25:57;236.43;;;182.88;;
55328;SDS011;41205;44.264;19.884;2022-11-15T10:28:27;206.32;;;161.70;;
55328;SDS011;41205;44.264;19.884;2022-11-15T10:30:55;202.10;;;150.23;;
55328;SDS011;41205;44.264;19.884;2022-11-15T10:38:43;171.77;;;129.00;;
55328;SDS011;41205;44.264;19.884;2022-11-15T10:41:17;161.43;;;118.35;;
55328;SDS011;41205;44.264;19.884;2022-11-15T10:44:03;159.95;;;120.28;;
55328;SDS011;41205;44.264;19.884;2022-11-15T10:46:32;168.55;;;115.85;;
55328;SDS011;41205;44.264;19.884;2022-11-15T10:49:12;138.45;;;104.13;;
55328;SDS011;41205;44.264;19.884;2022-11-15T10:51:46;134.43;;;95.80;;
55328;SDS011;41205;44.264;19.884;2022-11-15T10:54:22;142.05;;;103.43;;
55328;SDS011;41205;44.264;19.884;2022-11-15T10:56:55;132.13;;;98.70;;
55328;SDS011;41205;44.264;19.884;2022-11-15T10:59:27;131.23;;;93.45;;
55328;SDS011;41205;44.264;19.884;2022-11-15T11:01:55;149.80;;;104.07;;
55328;SDS011;41205;44.264;19.884;2022-11-15T11:04:21;131.70;;;95.88;;
55328;SDS011;41205;44.264;19.884;2022-11-15T11:06:55;129.05;;;92.30;;
55328;SDS011;41205;44.264;19.884;2022-11-15T11:12:02;122.30;;;87.32;;
55328;SDS011;41205;44.264;19.884;2022-11-15T11:14:33;115.95;;;83.78;;
55328;SDS011;41205;44.264;19.884;2022-11-15T11:36:50;104.22;;;77.13;;
55328;SDS011;41205;44.264;19.884;2022-11-15T11:45:04;96.07;;;70.22;;
55328;SDS011;41205;44.264;19.884;2022-11-15T11:47:38;100.70;;;74.75;;
55328;SDS011;41205;44.264;19.884;2022-11-15T11:50:15;121.68;;;90.43;;
55328;SDS011;41205;44.264;19.884;2022-11-15T11:52:50;129.82;;;95.10;;
55328;SDS011;41205;44.264;19.884;2022-11-15T11:55:43;135.18;;;97.65;;
55328;SDS011;41205;44.264;19.884;2022-11-15T11:58:16;110.25;;;84.90;;
55328;SDS011;41205;44.264;19.884;2022-11-15T12:00:51;132.45;;;88.53;;
55328;SDS011;41205;44.264;19.884;2022-11-15T12:05:56;115.28;;;82.88;;
55328;SDS011;41205;44.264;19.884;2022-11-15T12:08:33;109.18;;;81.30;;
55328;SDS011;41205;44.264;19.884;2022-11-15T12:16:53;98.40;;;74.80;;
55328;SDS011;41205;44.264;19.884;2022-11-15T12:19:19;107.10;;;78.40;;
55328;SDS011;41205;44.264;19.884;2022-11-15T12:22:04;91.47;;;63.10;;
55328;SDS011;41205;44.264;19.884;2022-11-15T12:24:51;80.32;;;59.28;;
55328;SDS011;41205;44.264;19.884;2022-11-15T12:27:32;87.78;;;62.35;;
55328;SDS011;41205;44.264;19.884;2022-11-15T12:32:35;77.07;;;56.75;;
55328;SDS011;41205;44.264;19.884;2022-11-15T12:35:03;87.95;;;69.07;;
55328;SDS011;41205;44.264;19.884;2022-11-15T12:37:48;73.60;;;54.60;;
55328;SDS011;41205;44.264;19.884;2022-11-15T12:45:29;71.80;;;53.50;;
55328;SDS011;41205;44.264;19.884;2022-11-15T13:09:56;89.32;;;63.15;;
55328;SDS011;41205;44.264;19.884;2022-11-15T13:12:09;85.80;;;62.33;;
55328;SDS011;41205;44.264;19.884;2022-11-15T13:14:59;79.70;;;59.30;;
55328;SDS011;41205;44.264;19.884;2022-11-15T13:17:27;135.73;;;96.20;;
55328;SDS011;41205;44.264;19.884;2022-11-15T13:30:40;94.35;;;66.22;;
55328;SDS011;41205;44.264;19.884;2022-11-15T13:33:15;85.13;;;65.43;;
55328;SDS011;41205;44.264;19.884;2022-11-15T13:35:56;72.28;;;55.10;;
55328;SDS011;41205;44.264;19.884;2022-11-15T13:40:49;86.57;;;53.05;;
55328;SDS011;41205;44.264;19.884;2022-11-15T13:54:25;154.30;;;99.78;;
55328;SDS011;41205;44.264;19.884;2022-11-15T13:56:55;126.10;;;80.15;;
55328;SDS011;41205;44.264;19.884;2022-11-15T13:59:25;103.88;;;80.63;;
55328;SDS011;41205;44.264;19.884;2022-11-15T14:01:56;141.05;;;102.07;;
55328;SDS011;41205;44.264;19.884;2022-11-15T14:04:25;168.93;;;122.85;;
55328;SDS011;41205;44.264;19.884;2022-11-15T14:06:57;177.55;;;131.15;;
55328;SDS011;41205;44.264;19.884;2022-11-15T14:11:59;166.43;;;120.60;;
55328;SDS011;41205;44.264;19.884;2022-11-15T14:14:29;148.85;;;108.28;;
55328;SDS011;41205;44.264;19.884;2022-11-15T14:16:55;393.13;;;311.38;;
55328;SDS011;41205;44.264;19.884;2022-11-15T14:24:38;262.60;;;205.43;;
55328;SDS011;41205;44.264;19.884;2022-11-15T14:27:17;299.65;;;238.18;;
55328;SDS011;41205;44.264;19.884;2022-11-15T14:29:51;151.32;;;119.68;;
55328;SDS011;41205;44.264;19.884;2022-11-15T14:32:21;121.25;;;93.18;;
55328;SDS011;41205;44.264;19.884;2022-11-15T14:34:49;171.35;;;140.57;;
55328;SDS011;41205;44.264;19.884;2022-11-15T14:39:52;182.65;;;141.18;;
55328;SDS011;41205;44.264;19.884;2022-11-15T14:42:19;124.10;;;93.22;;
55328;SDS011;41205;44.264;19.884;2022-11-15T14:44:46;113.97;;;89.43;;
55328;SDS011;41205;44.264;19.884;2022-11-15T14:47:12;135.93;;;110.38;;
55328;SDS011;41205;44.264;19.884;2022-11-15T14:49:37;165.80;;;127.43;;
55328;SDS011;41205;44.264;19.884;2022-11-15T14:52:18;173.35;;;133.85;;
55328;SDS011;41205;44.264;19.884;2022-11-15T14:54:49;169.50;;;120.68;;
55328;SDS011;41205;44.264;19.884;2022-11-15T14:57:15;135.60;;;97.80;;
55328;SDS011;41205;44.264;19.884;2022-11-15T14:59:40;149.75;;;116.97;;
55328;SDS011;41205;44.264;19.884;2022-11-15T15:02:24;171.38;;;124.93;;
55328;SDS011;41205;44.264;19.884;2022-11-15T15:04:52;208.63;;;155.20;;
55328;SDS011;41205;44.264;19.884;2022-11-15T15:07:18;156.52;;;122.80;;
55328;SDS011;41205;44.264;19.884;2022-11-15T15:09:44;229.70;;;174.18;;
55328;SDS011;41205;44.264;19.884;2022-11-15T15:12:17;147.65;;;112.45;;
55328;SDS011;41205;44.264;19.884;2022-11-15T15:14:47;159.43;;;122.28;;
55328;SDS011;41205;44.264;19.884;2022-11-15T15:17:15;187.23;;;138.68;;
55328;SDS011;41205;44.264;19.884;2022-11-15T15:19:41;183.45;;;129.57;;
55328;SDS011;41205;44.264;19.884;2022-11-15T15:22:17;268.15;;;189.38;;
55328;SDS011;41205;44.264;19.884;2022-11-15T15:24:45;238.68;;;171.57;;
55328;SDS011;41205;44.264;19.884;2022-11-15T15:27:11;212.60;;;155.30;;
55328;SDS011;41205;44.264;19.884;2022-11-15T15:29:37;232.10;;;165.45;;
55328;SDS011;41205;44.264;19.884;2022-11-15T15:32:04;252.80;;;181.05;;
55328;SDS011;41205;44.264;19.884;2022-11-15T15:34:30;338.27;;;246.68;;
55328;SDS011;41205;44.264;19.884;2022-11-15T15:39:54;177.18;;;133.02;;
55328;SDS011;41205;44.264;19.884;2022-11-15T15:42:21;207.27;;;142.30;;
55328;SDS011;41205;44.264;19.884;2022-11-15T15:44:47;201.18;;;145.95;;
55328;SDS011;41205;44.264;19.884;2022-11-15T15:47:18;206.65;;;145.70;;
55328;SDS011;41205;44.264;19.884;2022-11-15T15:49:48;241.80;;;175.40;;
55328;SDS011;41205;44.264;19.884;2022-11-15T15:52:15;208.25;;;148.95;;
55328;SDS011;41205;44.264;19.884;2022-11-15T15:54:41;201.30;;;147.50;;
55328;SDS011;41205;44.264;19.884;2022-11-15T15:57:07;240.32;;;185.00;;
55328;SDS011;41205;44.264;19.884;2022-11-15T15:59:36;196.00;;;146.93;;
55328;SDS011;41205;44.264;19.884;2022-11-15T16:02:01;322.23;;;231.63;;
55328;SDS011;41205;44.264;19.884;2022-11-15T16:04:27;356.35;;;265.63;;
55328;SDS011;41205;44.264;19.884;2022-11-15T16:06:57;300.75;;;224.10;;
55328;SDS011;41205;44.264;19.884;2022-11-15T16:09:24;268.45;;;180.80;;
55328;SDS011;41205;44.264;19.884;2022-11-15T16:12:08;216.95;;;149.50;;
55328;SDS011;41205;44.264;19.884;2022-11-15T16:14:34;224.63;;;157.00;;
55328;SDS011;41205;44.264;19.884;2022-11-15T16:16:59;212.02;;;155.45;;
55328;SDS011;41205;44.264;19.884;2022-11-15T16:19:25;195.65;;;136.80;;
55328;SDS011;41205;44.264;19.884;2022-11-15T16:21:51;170.32;;;126.63;;
55328;SDS011;41205;44.264;19.884;2022-11-15T16:24:17;199.90;;;143.15;;
55328;SDS011;41205;44.264;19.884;2022-11-15T16:26:43;216.68;;;160.38;;
55328;SDS011;41205;44.264;19.884;2022-11-15T16:29:10;215.63;;;164.88;;
55328;SDS011;41205;44.264;19.884;2022-11-15T16:31:36;228.48;;;168.30;;
55328;SDS011;41205;44.264;19.884;2022-11-15T16:34:02;260.45;;;194.90;;
55328;SDS011;41205;44.264;19.884;2022-11-15T16:36:29;281.80;;;207.07;;
55328;SDS011;41205;44.264;19.884;2022-11-15T16:38:57;262.27;;;192.85;;
55328;SDS011;41205;44.264;19.884;2022-11-15T16:41:24;294.15;;;222.05;;
55328;SDS011;41205;44.264;19.884;2022-11-15T16:43:50;266.80;;;197.95;;
55328;SDS011;41205;44.264;19.884;2022-11-15T16:46:17;287.88;;;208.98;;